Jachin, Alabama
Current Conditions -  °F | °C
As of 11:35 AM on Friday 21 Nov 2014 (Local Time) from KDYA Reporting Station
Clear Clear  
Wind Chill: 67°   Ceiling: Unl
Heat Index: 67°   Visibility: 10mi
Dew Point: 43°   Wind: 0mph
Humidity: 42%   Direction: NA
Pressure: 30.34"   Gusts: NA
Location:  32.23°N, 88.17°W
Report Text: KDYA 211735Z AUTO 00000KT 10SM CLR 20/06 A3034 RMK AO2 T01950062
Loading
Personal Weather Stations






























Interactive Weather Map New forecast layout! Learn more

10-Day Weather Forecast

Advertisements
Track Severe Weather on mobile